sensor_id;sensor_type;location;lat;lon;timestamp;pressure;altitude;pressure_sealevel;temperature;humidity
35291;BME280;21411;50.024;19.220;2023-09-19T00:00:24;98257.59;;;18.44;100.00
35291;BME280;21411;50.024;19.220;2023-09-19T00:03:13;98253.33;;;18.43;100.00
35291;BME280;21411;50.024;19.220;2023-09-19T00:05:41;98254.28;;;18.43;100.00
35291;BME280;21411;50.024;19.220;2023-09-19T00:08:10;98251.98;;;18.42;100.00
35291;BME280;21411;50.024;19.220;2023-09-19T00:10:37;98250.68;;;18.41;100.00
35291;BME280;21411;50.024;19.220;2023-09-19T00:13:06;98250.38;;;18.39;100.00
35291;BME280;21411;50.024;19.220;2023-09-19T00:15:41;98244.67;;;18.37;100.00
35291;BME280;21411;50.024;19.220;2023-09-19T00:18:08;98239.56;;;18.36;100.00
35291;BME280;21411;50.024;19.220;2023-09-19T00:20:36;98234.04;;;18.36;100.00
35291;BME280;21411;50.024;19.220;2023-09-19T00:23:03;98231.66;;;18.36;100.00
35291;BME280;21411;50.024;19.220;2023-09-19T00:25:31;98226.47;;;18.36;100.00
35291;BME280;21411;50.024;19.220;2023-09-19T00:27:58;98227.58;;;18.36;100.00
35291;BME280;21411;50.024;19.220;2023-09-19T00:30:24;98229.45;;;18.35;100.00
35291;BME280;21411;50.024;19.220;2023-09-19T00:32:51;98224.30;;;18.34;100.00
35291;BME280;21411;50.024;19.220;2023-09-19T00:35:21;98221.98;;;18.34;100.00
35291;BME280;21411;50.024;19.220;2023-09-19T00:37:51;98214.36;;;18.35;100.00
35291;BME280;21411;50.024;19.220;2023-09-19T00:40:19;98213.09;;;18.35;100.00
35291;BME280;21411;50.024;19.220;2023-09-19T00:42:47;98211.57;;;18.34;100.00
35291;BME280;21411;50.024;19.220;2023-09-19T00:45:17;98209.98;;;18.34;100.00
35291;BME280;21411;50.024;19.220;2023-09-19T00:47:45;98206.92;;;18.34;100.00
35291;BME280;21411;50.024;19.220;2023-09-19T00:50:14;98206.99;;;18.33;100.00
35291;BME280;21411;50.024;19.220;2023-09-19T00:52:42;98207.73;;;18.33;100.00
35291;BME280;21411;50.024;19.220;2023-09-19T00:55:10;98203.38;;;18.32;100.00
35291;BME280;21411;50.024;19.220;2023-09-19T00:57:38;98197.92;;;18.31;100.00
35291;BME280;21411;50.024;19.220;2023-09-19T01:00:06;98192.63;;;18.30;100.00
35291;BME280;21411;50.024;19.220;2023-09-19T01:02:35;98192.25;;;18.30;100.00
35291;BME280;21411;50.024;19.220;2023-09-19T01:05:01;98191.73;;;18.30;100.00
35291;BME280;21411;50.024;19.220;2023-09-19T01:07:31;98191.77;;;18.30;100.00
35291;BME280;21411;50.024;19.220;2023-09-19T01:09:58;98186.80;;;18.29;100.00
35291;BME280;21411;50.024;19.220;2023-09-19T01:20:39;98175.17;;;18.28;100.00
35291;BME280;21411;50.024;19.220;2023-09-19T01:31:03;98174.08;;;18.32;100.00
35291;BME280;21411;50.024;19.220;2023-09-19T01:33:58;98168.84;;;18.32;100.00
35291;BME280;21411;50.024;19.220;2023-09-19T01:36:32;98167.33;;;18.32;100.00
35291;BME280;21411;50.024;19.220;2023-09-19T01:39:07;98164.91;;;18.33;100.00
35291;BME280;21411;50.024;19.220;2023-09-19T01:44:25;98161.16;;;18.36;100.00
35291;BME280;21411;50.024;19.220;2023-09-19T01:46:58;98159.42;;;18.37;100.00
35291;BME280;21411;50.024;19.220;2023-09-19T01:49:45;98159.71;;;18.38;100.00
35291;BME280;21411;50.024;19.220;2023-09-19T01:52:15;98157.17;;;18.38;100.00
35291;BME280;21411;50.024;19.220;2023-09-19T01:54:49;98156.09;;;18.38;100.00
35291;BME280;21411;50.024;19.220;2023-09-19T01:57:27;98158.66;;;18.38;100.00
35291;BME280;21411;50.024;19.220;2023-09-19T02:00:30;98161.62;;;18.37;100.00
35291;BME280;21411;50.024;19.220;2023-09-19T02:02:59;98165.68;;;18.38;100.00
35291;BME280;21411;50.024;19.220;2023-09-19T02:05:26;98166.29;;;18.39;100.00
35291;BME280;21411;50.024;19.220;2023-09-19T02:07:54;98163.84;;;18.40;100.00
35291;BME280;21411;50.024;19.220;2023-09-19T02:10:22;98161.61;;;18.40;100.00
35291;BME280;21411;50.024;19.220;2023-09-19T02:12:50;98162.70;;;18.40;100.00
35291;BME280;21411;50.024;19.220;2023-09-19T02:15:17;98164.96;;;18.41;100.00
35291;BME280;21411;50.024;19.220;2023-09-19T02:17:43;98164.64;;;18.42;100.00
35291;BME280;21411;50.024;19.220;2023-09-19T02:20:11;98164.94;;;18.42;100.00
35291;BME280;21411;50.024;19.220;2023-09-19T02:22:41;98164.93;;;18.42;100.00
35291;BME280;21411;50.024;19.220;2023-09-19T02:25:08;98162.92;;;18.43;100.00
35291;BME280;21411;50.024;19.220;2023-09-19T02:27:35;98162.42;;;18.44;100.00
35291;BME280;21411;50.024;19.220;2023-09-19T02:30:02;98160.96;;;18.46;100.00
35291;BME280;21411;50.024;19.220;2023-09-19T02:32:29;98157.83;;;18.47;100.00
35291;BME280;21411;50.024;19.220;2023-09-19T02:34:57;98157.08;;;18.47;100.00
35291;BME280;21411;50.024;19.220;2023-09-19T02:37:27;98157.88;;;18.48;100.00
35291;BME280;21411;50.024;19.220;2023-09-19T02:39:54;98157.11;;;18.48;100.00
35291;BME280;21411;50.024;19.220;2023-09-19T02:42:20;98157.70;;;18.49;100.00
35291;BME280;21411;50.024;19.220;2023-09-19T02:44:47;98157.94;;;18.51;100.00
35291;BME280;21411;50.024;19.220;2023-09-19T02:47:14;98155.14;;;18.52;100.00
35291;BME280;21411;50.024;19.220;2023-09-19T02:49:41;98159.05;;;18.52;100.00
35291;BME280;21411;50.024;19.220;2023-09-19T02:52:09;98163.98;;;18.51;100.00
35291;BME280;21411;50.024;19.220;2023-09-19T02:54:37;98166.98;;;18.50;100.00
35291;BME280;21411;50.024;19.220;2023-09-19T02:57:04;98163.71;;;18.50;100.00
35291;BME280;21411;50.024;19.220;2023-09-19T02:59:32;98154.02;;;18.50;100.00
35291;BME280;21411;50.024;19.220;2023-09-19T03:01:59;98149.50;;;18.50;100.00
35291;BME280;21411;50.024;19.220;2023-09-19T03:04:26;98148.97;;;18.50;100.00
35291;BME280;21411;50.024;19.220;2023-09-19T03:06:53;98146.05;;;18.48;100.00
35291;BME280;21411;50.024;19.220;2023-09-19T03:09:25;98149.13;;;18.42;100.00
35291;BME280;21411;50.024;19.220;2023-09-19T03:11:51;98147.02;;;18.35;100.00
35291;BME280;21411;50.024;19.220;2023-09-19T03:14:18;98143.10;;;18.29;100.00
35291;BME280;21411;50.024;19.220;2023-09-19T03:16:46;98139.92;;;18.22;100.00
35291;BME280;21411;50.024;19.220;2023-09-19T03:19:12;98137.70;;;18.16;100.00
35291;BME280;21411;50.024;19.220;2023-09-19T03:21:41;98139.36;;;18.13;100.00
35291;BME280;21411;50.024;19.220;2023-09-19T03:24:07;98137.55;;;18.11;100.00
35291;BME280;21411;50.024;19.220;2023-09-19T03:26:35;98140.05;;;18.10;100.00
35291;BME280;21411;50.024;19.220;2023-09-19T03:29:05;98142.50;;;18.10;100.00
35291;BME280;21411;50.024;19.220;2023-09-19T03:31:36;98141.26;;;18.10;100.00
35291;BME280;21411;50.024;19.220;2023-09-19T03:34:03;98139.58;;;18.09;100.00
35291;BME280;21411;50.024;19.220;2023-09-19T03:36:30;98136.77;;;18.08;100.00
35291;BME280;21411;50.024;19.220;2023-09-19T03:38:57;98138.53;;;18.07;100.00
35291;BME280;21411;50.024;19.220;2023-09-19T03:41:23;98137.23;;;18.06;100.00
35291;BME280;21411;50.024;19.220;2023-09-19T03:43:50;98130.17;;;18.06;100.00
35291;BME280;21411;50.024;19.220;2023-09-19T03:46:16;98133.67;;;18.06;100.00
35291;BME280;21411;50.024;19.220;2023-09-19T03:48:43;98134.93;;;18.03;100.00
35291;BME280;21411;50.024;19.220;2023-09-19T03:51:10;98132.03;;;18.01;100.00
35291;BME280;21411;50.024;19.220;2023-09-19T03:53:37;98127.02;;;18.01;100.00
35291;BME280;21411;50.024;19.220;2023-09-19T03:56:03;98126.20;;;18.02;100.00
35291;BME280;21411;50.024;19.220;2023-09-19T03:58:30;98121.95;;;18.03;100.00
35291;BME280;21411;50.024;19.220;2023-09-19T04:00:57;98119.96;;;18.03;100.00
35291;BME280;21411;50.024;19.220;2023-09-19T04:03:24;98114.98;;;18.03;100.00
35291;BME280;21411;50.024;19.220;2023-09-19T04:06:01;98114.17;;;18.00;100.00
35291;BME280;21411;50.024;19.220;2023-09-19T04:08:28;98113.52;;;17.96;100.00
35291;BME280;21411;50.024;19.220;2023-09-19T04:10:55;98111.19;;;17.94;100.00
35291;BME280;21411;50.024;19.220;2023-09-19T04:13:23;98114.30;;;17.94;100.00
35291;BME280;21411;50.024;19.220;2023-09-19T04:15:50;98117.86;;;17.94;100.00
35291;BME280;21411;50.024;19.220;2023-09-19T04:18:16;98124.73;;;17.94;100.00
35291;BME280;21411;50.024;19.220;2023-09-19T04:20:50;98133.80;;;17.93;100.00
35291;BME280;21411;50.024;19.220;2023-09-19T04:23:17;98139.02;;;17.91;100.00
35291;BME280;21411;50.024;19.220;2023-09-19T04:25:43;98147.89;;;17.91;100.00
35291;BME280;21411;50.024;19.220;2023-09-19T04:28:10;98149.93;;;17.90;100.00
35291;BME280;21411;50.024;19.220;2023-09-19T04:30:37;98144.59;;;17.88;100.00
35291;BME280;21411;50.024;19.220;2023-09-19T04:33:07;98143.05;;;17.88;100.00
35291;BME280;21411;50.024;19.220;2023-09-19T04:35:34;98148.96;;;17.89;100.00
35291;BME280;21411;50.024;19.220;2023-09-19T04:38:01;98148.53;;;17.88;100.00
35291;BME280;21411;50.024;19.220;2023-09-19T04:40:29;98145.39;;;17.89;100.00
35291;BME280;21411;50.024;19.220;2023-09-19T04:42:56;98147.77;;;17.90;100.00
35291;BME280;21411;50.024;19.220;2023-09-19T04:45:24;98145.95;;;17.90;100.00
35291;BME280;21411;50.024;19.220;2023-09-19T04:47:50;98147.15;;;17.88;100.00
35291;BME280;21411;50.024;19.220;2023-09-19T04:50:17;98152.10;;;17.87;100.00
35291;BME280;21411;50.024;19.220;2023-09-19T04:52:44;98159.38;;;17.86;100.00
35291;BME280;21411;50.024;19.220;2023-09-19T04:55:12;98160.30;;;17.86;100.00
35291;BME280;21411;50.024;19.220;2023-09-19T04:57:48;98162.81;;;17.84;100.00
35291;BME280;21411;50.024;19.220;2023-09-19T05:00:17;98166.46;;;17.82;100.00
35291;BME280;21411;50.024;19.220;2023-09-19T05:02:46;98164.23;;;17.81;100.00
35291;BME280;21411;50.024;19.220;2023-09-19T05:05:15;98161.23;;;17.82;100.00
35291;BME280;21411;50.024;19.220;2023-09-19T05:07:43;98163.53;;;17.84;100.00
35291;BME280;21411;50.024;19.220;2023-09-19T05:10:10;98161.91;;;17.86;100.00
35291;BME280;21411;50.024;19.220;2023-09-19T05:12:38;98163.99;;;17.88;100.00
35291;BME280;21411;50.024;19.220;2023-09-19T05:15:06;98163.19;;;17.91;100.00
35291;BME280;21411;50.024;19.220;2023-09-19T05:17:36;98164.59;;;17.93;100.00
35291;BME280;21411;50.024;19.220;2023-09-19T05:20:03;98165.67;;;17.94;100.00
35291;BME280;21411;50.024;19.220;2023-09-19T05:22:38;98165.20;;;17.97;100.00
35291;BME280;21411;50.024;19.220;2023-09-19T05:25:07;98164.59;;;17.99;100.00
35291;BME280;21411;50.024;19.220;2023-09-19T05:27:34;98166.14;;;18.02;100.00
35291;BME280;21411;50.024;19.220;2023-09-19T05:30:00;98165.73;;;18.04;100.00
35291;BME280;21411;50.024;19.220;2023-09-19T05:32:27;98160.66;;;18.04;100.00
35291;BME280;21411;50.024;19.220;2023-09-19T05:34:53;98162.58;;;18.05;100.00
35291;BME280;21411;50.024;19.220;2023-09-19T05:37:22;98161.83;;;18.05;100.00
35291;BME280;21411;50.024;19.220;2023-09-19T05:39:49;98160.45;;;18.06;100.00
35291;BME280;21411;50.024;19.220;2023-09-19T05:42:16;98164.18;;;18.08;100.00
35291;BME280;21411;50.024;19.220;2023-09-19T05:44:43;98166.42;;;18.09;100.00
35291;BME280;21411;50.024;19.220;2023-09-19T05:47:09;98166.90;;;18.09;100.00
35291;BME280;21411;50.024;19.220;2023-09-19T05:49:36;98164.16;;;18.11;100.00
35291;BME280;21411;50.024;19.220;2023-09-19T05:52:05;98165.86;;;18.12;100.00
35291;BME280;21411;50.024;19.220;2023-09-19T05:54:32;98164.71;;;18.14;100.00
35291;BME280;21411;50.024;19.220;2023-09-19T05:57:00;98166.86;;;18.16;100.00
35291;BME280;21411;50.024;19.220;2023-09-19T05:59:28;98170.64;;;18.17;100.00
35291;BME280;21411;50.024;19.220;2023-09-19T06:01:54;98169.95;;;18.19;100.00
35291;BME280;21411;50.024;19.220;2023-09-19T06:04:21;98171.65;;;18.20;100.00
35291;BME280;21411;50.024;19.220;2023-09-19T06:06:48;98173.98;;;18.21;100.00
35291;BME280;21411;50.024;19.220;2023-09-19T06:09:15;98171.38;;;18.22;100.00
35291;BME280;21411;50.024;19.220;2023-09-19T06:11:42;98173.92;;;18.22;100.00
35291;BME280;21411;50.024;19.220;2023-09-19T06:14:08;98178.45;;;18.22;100.00
35291;BME280;21411;50.024;19.220;2023-09-19T06:16:36;98176.40;;;18.20;100.00
35291;BME280;21411;50.024;19.220;2023-09-19T06:19:04;98176.77;;;18.22;100.00
35291;BME280;21411;50.024;19.220;2023-09-19T06:21:35;98182.30;;;18.25;100.00
35291;BME280;21411;50.024;19.220;2023-09-19T06:24:02;98187.30;;;18.26;100.00
35291;BME280;21411;50.024;19.220;2023-09-19T06:26:29;98187.75;;;18.27;100.00
35291;BME280;21411;50.024;19.220;2023-09-19T06:28:57;98192.88;;;18.26;100.00
35291;BME280;21411;50.024;19.220;2023-09-19T06:31:25;98199.95;;;18.22;100.00
35291;BME280;21411;50.024;19.220;2023-09-19T06:33:52;98203.70;;;18.19;100.00
35291;BME280;21411;50.024;19.220;2023-09-19T06:36:19;98209.41;;;18.16;100.00
35291;BME280;21411;50.024;19.220;2023-09-19T06:38:46;98215.30;;;18.13;100.00
35291;BME280;21411;50.024;19.220;2023-09-19T06:41:13;98218.81;;;18.11;100.00
35291;BME280;21411;50.024;19.220;2023-09-19T06:43:42;98227.52;;;18.09;100.00
35291;BME280;21411;50.024;19.220;2023-09-19T06:46:08;98233.41;;;18.06;100.00
35291;BME280;21411;50.024;19.220;2023-09-19T06:48:36;98241.00;;;18.04;100.00
35291;BME280;21411;50.024;19.220;2023-09-19T06:51:02;98248.77;;;18.00;100.00
35291;BME280;21411;50.024;19.220;2023-09-19T06:53:32;98255.96;;;17.94;100.00
35291;BME280;21411;50.024;19.220;2023-09-19T06:56:02;98265.55;;;17.90;100.00
35291;BME280;21411;50.024;19.220;2023-09-19T06:58:28;98272.49;;;17.86;100.00
35291;BME280;21411;50.024;19.220;2023-09-19T07:00:55;98277.45;;;17.83;100.00
35291;BME280;21411;50.024;19.220;2023-09-19T07:03:22;98280.23;;;17.80;100.00
35291;BME280;21411;50.024;19.220;2023-09-19T07:05:52;98285.11;;;17.76;100.00
35291;BME280;21411;50.024;19.220;2023-09-19T07:08:19;98290.63;;;17.72;100.00
35291;BME280;21411;50.024;19.220;2023-09-19T07:10:46;98298.88;;;17.67;100.00
35291;BME280;21411;50.024;19.220;2023-09-19T07:13:15;98306.91;;;17.61;100.00
35291;BME280;21411;50.024;19.220;2023-09-19T07:15:45;98308.64;;;17.55;100.00
35291;BME280;21411;50.024;19.220;2023-09-19T07:18:17;98313.35;;;17.51;100.00
35291;BME280;21411;50.024;19.220;2023-09-19T07:20:44;98315.46;;;17.48;100.00
35291;BME280;21411;50.024;19.220;2023-09-19T07:23:21;98323.06;;;17.46;100.00
35291;BME280;21411;50.024;19.220;2023-09-19T07:25:56;98322.92;;;17.44;100.00
35291;BME280;21411;50.024;19.220;2023-09-19T07:28:23;98327.12;;;17.41;100.00
35291;BME280;21411;50.024;19.220;2023-09-19T07:30:49;98328.02;;;17.38;100.00
35291;BME280;21411;50.024;19.220;2023-09-19T07:33:16;98335.33;;;17.35;100.00
35291;BME280;21411;50.024;19.220;2023-09-19T07:35:46;98337.66;;;17.33;100.00
35291;BME280;21411;50.024;19.220;2023-09-19T07:38:13;98344.55;;;17.31;100.00
35291;BME280;21411;50.024;19.220;2023-09-19T07:40:39;98349.16;;;17.30;100.00
35291;BME280;21411;50.024;19.220;2023-09-19T07:43:06;98354.06;;;17.29;100.00
35291;BME280;21411;50.024;19.220;2023-09-19T07:45:33;98358.77;;;17.29;100.00
35291;BME280;21411;50.024;19.220;2023-09-19T07:48:00;98366.59;;;17.28;100.00
35291;BME280;21411;50.024;19.220;2023-09-19T07:50:30;98371.47;;;17.28;100.00
35291;BME280;21411;50.024;19.220;2023-09-19T07:52:57;98372.04;;;17.27;100.00
35291;BME280;21411;50.024;19.220;2023-09-19T07:55:25;98374.99;;;17.27;100.00
35291;BME280;21411;50.024;19.220;2023-09-19T07:57:52;98381.83;;;17.27;100.00
35291;BME280;21411;50.024;19.220;2023-09-19T08:00:19;98385.64;;;17.28;100.00
35291;BME280;21411;50.024;19.220;2023-09-19T08:02:45;98393.08;;;17.29;100.00
35291;BME280;21411;50.024;19.220;2023-09-19T08:05:14;98396.21;;;17.29;100.00
35291;BME280;21411;50.024;19.220;2023-09-19T08:07:45;98398.66;;;17.30;100.00
35291;BME280;21411;50.024;19.220;2023-09-19T08:10:15;98404.34;;;17.31;100.00
35291;BME280;21411;50.024;19.220;2023-09-19T08:12:46;98408.98;;;17.31;100.00
35291;BME280;21411;50.024;19.220;2023-09-19T08:15:13;98412.72;;;17.31;100.00
35291;BME280;21411;50.024;19.220;2023-09-19T08:17:40;98417.11;;;17.32;100.00
35291;BME280;21411;50.024;19.220;2023-09-19T08:20:08;98418.05;;;17.34;100.00
35291;BME280;21411;50.024;19.220;2023-09-19T08:22:53;98420.23;;;17.36;100.00
35291;BME280;21411;50.024;19.220;2023-09-19T08:25:21;98426.33;;;17.37;100.00
35291;BME280;21411;50.024;19.220;2023-09-19T08:27:49;98427.89;;;17.40;100.00
35291;BME280;21411;50.024;19.220;2023-09-19T08:30:18;98431.03;;;17.42;100.00
35291;BME280;21411;50.024;19.220;2023-09-19T08:32:50;98433.30;;;17.44;100.00
35291;BME280;21411;50.024;19.220;2023-09-19T08:35:17;98437.00;;;17.48;100.00
35291;BME280;21411;50.024;19.220;2023-09-19T08:37:43;98436.89;;;17.55;100.00
35291;BME280;21411;50.024;19.220;2023-09-19T08:40:13;98443.23;;;17.61;100.00
35291;BME280;21411;50.024;19.220;2023-09-19T08:42:54;98448.65;;;17.69;100.00
35291;BME280;21411;50.024;19.220;2023-09-19T08:45:22;98450.75;;;17.79;100.00
35291;BME280;21411;50.024;19.220;2023-09-19T08:50:26;98455.33;;;17.96;100.00
35291;BME280;21411;50.024;19.220;2023-09-19T08:53:00;98452.03;;;18.06;100.00
35291;BME280;21411;50.024;19.220;2023-09-19T08:55:28;98453.77;;;18.13;100.00
35291;BME280;21411;50.024;19.220;2023-09-19T08:58:01;98456.01;;;18.17;100.00
35291;BME280;21411;50.024;19.220;2023-09-19T09:00:36;98452.69;;;18.23;100.00
35291;BME280;21411;50.024;19.220;2023-09-19T09:03:04;98455.05;;;18.28;100.00
35291;BME280;21411;50.024;19.220;2023-09-19T09:05:35;98451.63;;;18.33;100.00
35291;BME280;21411;50.024;19.220;2023-09-19T09:08:04;98449.27;;;18.36;100.00
35291;BME280;21411;50.024;19.220;2023-09-19T09:10:32;98448.52;;;18.36;100.00
35291;BME280;21411;50.024;19.220;2023-09-19T09:12:59;98449.52;;;18.39;100.00
35291;BME280;21411;50.024;19.220;2023-09-19T09:15:26;98453.46;;;18.46;100.00
35291;BME280;21411;50.024;19.220;2023-09-19T09:17:56;98452.98;;;18.55;100.00
35291;BME280;21411;50.024;19.220;2023-09-19T09:20:23;98455.25;;;18.62;100.00
35291;BME280;21411;50.024;19.220;2023-09-19T09:22:54;98458.00;;;18.72;100.00
35291;BME280;21411;50.024;19.220;2023-09-19T09:25:22;98456.08;;;18.81;100.00
35291;BME280;21411;50.024;19.220;2023-09-19T09:28:01;98453.74;;;18.92;100.00
35291;BME280;21411;50.024;19.220;2023-09-19T09:30:37;98454.35;;;18.98;100.00
35291;BME280;21411;50.024;19.220;2023-09-19T09:33:11;98454.38;;;19.02;100.00
35291;BME280;21411;50.024;19.220;2023-09-19T09:38:20;98461.19;;;19.10;100.00
35291;BME280;21411;50.024;19.220;2023-09-19T09:40:51;98463.79;;;19.13;100.00
35291;BME280;21411;50.024;19.220;2023-09-19T09:43:33;98467.61;;;19.13;100.00
35291;BME280;21411;50.024;19.220;2023-09-19T09:46:21;98469.94;;;19.13;100.00
35291;BME280;21411;50.024;19.220;2023-09-19T09:51:41;98474.44;;;19.06;100.00
35291;BME280;21411;50.024;19.220;2023-09-19T09:54:13;98477.58;;;19.04;100.00
35291;BME280;21411;50.024;19.220;2023-09-19T09:57:01;98479.86;;;19.01;100.00
35291;BME280;21411;50.024;19.220;2023-09-19T09:59:47;98481.52;;;18.94;100.00
35291;BME280;21411;50.024;19.220;2023-09-19T10:02:39;98482.16;;;18.88;100.00
35291;BME280;21411;50.024;19.220;2023-09-19T10:05:14;98486.07;;;18.82;100.00
35291;BME280;21411;50.024;19.220;2023-09-19T10:08:11;98489.70;;;18.77;100.00
35291;BME280;21411;50.024;19.220;2023-09-19T10:10:40;98491.73;;;18.75;100.00
35291;BME280;21411;50.024;19.220;2023-09-19T10:13:11;98487.58;;;18.73;100.00
35291;BME280;21411;50.024;19.220;2023-09-19T10:15:39;98488.86;;;18.71;100.00
35291;BME280;21411;50.024;19.220;2023-09-19T10:18:10;98489.50;;;18.70;100.00
35291;BME280;21411;50.024;19.220;2023-09-19T10:20:37;98492.12;;;18.73;100.00
35291;BME280;21411;50.024;19.220;2023-09-19T10:23:09;98492.54;;;18.76;100.00
35291;BME280;21411;50.024;19.220;2023-09-19T10:25:43;98494.13;;;18.78;100.00
35291;BME280;21411;50.024;19.220;2023-09-19T10:28:15;98496.87;;;18.80;100.00
35291;BME280;21411;50.024;19.220;2023-09-19T10:30:44;98501.45;;;18.81;100.00
35291;BME280;21411;50.024;19.220;2023-09-19T10:33:12;98499.91;;;18.81;100.00
35291;BME280;21411;50.024;19.220;2023-09-19T10:35:42;98503.52;;;18.80;100.00
35291;BME280;21411;50.024;19.220;2023-09-19T10:38:10;98510.09;;;18.80;100.00
35291;BME280;21411;50.024;19.220;2023-09-19T10:40:38;98510.53;;;18.77;100.00
35291;BME280;21411;50.024;19.220;2023-09-19T10:43:12;98512.21;;;18.75;100.00
35291;BME280;21411;50.024;19.220;2023-09-19T10:45:48;98515.31;;;18.75;100.00
35291;BME280;21411;50.024;19.220;2023-09-19T10:48:20;98516.92;;;18.77;100.00
35291;BME280;21411;50.024;19.220;2023-09-19T10:53:29;98526.96;;;18.82;100.00
35291;BME280;21411;50.024;19.220;2023-09-19T10:56:01;98526.84;;;18.83;100.00
35291;BME280;21411;50.024;19.220;2023-09-19T10:58:31;98528.73;;;18.84;100.00
35291;BME280;21411;50.024;19.220;2023-09-19T11:01:05;98526.20;;;18.84;100.00
35291;BME280;21411;50.024;19.220;2023-09-19T11:03:33;98529.59;;;18.86;100.00
35291;BME280;21411;50.024;19.220;2023-09-19T11:06:13;98535.16;;;18.88;100.00
35291;BME280;21411;50.024;19.220;2023-09-19T11:09:03;98538.63;;;18.87;100.00
35291;BME280;21411;50.024;19.220;2023-09-19T11:30:37;98547.15;;;18.80;100.00
35291;BME280;21411;50.024;19.220;2023-09-19T11:33:21;98543.58;;;18.81;100.00
35291;BME280;21411;50.024;19.220;2023-09-19T11:46:21;98547.77;;;19.22;100.00
35291;BME280;21411;50.024;19.220;2023-09-19T11:48:49;98550.20;;;19.28;100.00
35291;BME280;21411;50.024;19.220;2023-09-19T11:51:20;98550.66;;;19.35;100.00
35291;BME280;21411;50.024;19.220;2023-09-19T11:53:54;98549.01;;;19.37;100.00
35291;BME280;21411;50.024;19.220;2023-09-19T11:56:24;98549.52;;;19.34;100.00
35291;BME280;21411;50.024;19.220;2023-09-19T11:58:53;98553.71;;;19.34;100.00
35291;BME280;21411;50.024;19.220;2023-09-19T12:01:26;98554.41;;;19.36;100.00
35291;BME280;21411;50.024;19.220;2023-09-19T12:03:56;98556.48;;;19.33;100.00
35291;BME280;21411;50.024;19.220;2023-09-19T12:06:25;98556.38;;;19.34;100.00
35291;BME280;21411;50.024;19.220;2023-09-19T12:08:52;98557.12;;;19.34;100.00
35291;BME280;21411;50.024;19.220;2023-09-19T12:11:23;98562.29;;;19.39;100.00
35291;BME280;21411;50.024;19.220;2023-09-19T12:13:51;98562.55;;;19.47;100.00
35291;BME280;21411;50.024;19.220;2023-09-19T12:16:20;98562.55;;;19.50;100.00
35291;BME280;21411;50.024;19.220;2023-09-19T12:18:50;98562.15;;;19.49;100.00
35291;BME280;21411;50.024;19.220;2023-09-19T12:21:24;98564.61;;;19.46;100.00
35291;BME280;21411;50.024;19.220;2023-09-19T12:24:19;98569.45;;;19.48;100.00
35291;BME280;21411;50.024;19.220;2023-09-19T12:26:46;98574.98;;;19.53;100.00
35291;BME280;21411;50.024;19.220;2023-09-19T12:29:21;98569.42;;;19.59;100.00
35291;BME280;21411;50.024;19.220;2023-09-19T12:31:56;98569.31;;;19.67;100.00
35291;BME280;21411;50.024;19.220;2023-09-19T12:34:28;98573.02;;;19.74;100.00
35291;BME280;21411;50.024;19.220;2023-09-19T12:37:07;98573.86;;;19.81;100.00
35291;BME280;21411;50.024;19.220;2023-09-19T12:40:04;98573.33;;;19.91;100.00
35291;BME280;21411;50.024;19.220;2023-09-19T12:42:41;98571.92;;;20.00;100.00
35291;BME280;21411;50.024;19.220;2023-09-19T12:45:08;98568.51;;;20.11;100.00
35291;BME280;21411;50.024;19.220;2023-09-19T12:47:35;98572.66;;;20.22;100.00
35291;BME280;21411;50.024;19.220;2023-09-19T12:50:09;98571.31;;;20.32;100.00
35291;BME280;21411;50.024;19.220;2023-09-19T12:52:49;98573.95;;;20.50;100.00
35291;BME280;21411;50.024;19.220;2023-09-19T12:55:29;98572.74;;;20.66;100.00
35291;BME280;21411;50.024;19.220;2023-09-19T12:58:08;98573.85;;;20.89;100.00
35291;BME280;21411;50.024;19.220;2023-09-19T13:00:40;98572.88;;;21.13;100.00
35291;BME280;21411;50.024;19.220;2023-09-19T13:06:03;98562.09;;;21.67;100.00
35291;BME280;21411;50.024;19.220;2023-09-19T13:08:40;98567.98;;;21.92;100.00
35291;BME280;21411;50.024;19.220;2023-09-19T13:11:13;98567.00;;;22.08;100.00
35291;BME280;21411;50.024;19.220;2023-09-19T13:13:42;98565.73;;;22.20;100.00
35291;BME280;21411;50.024;19.220;2023-09-19T13:16:10;98567.95;;;22.33;100.00
35291;BME280;21411;50.024;19.220;2023-09-19T13:18:49;98563.00;;;22.43;100.00
35291;BME280;21411;50.024;19.220;2023-09-19T13:21:32;98559.03;;;22.61;100.00
35291;BME280;21411;50.024;19.220;2023-09-19T13:24:21;98559.78;;;22.88;100.00
35291;BME280;21411;50.024;19.220;2023-09-19T13:26:49;98564.95;;;23.08;100.00
35291;BME280;21411;50.024;19.220;2023-09-19T13:29:16;98566.52;;;23.31;100.00
35291;BME280;21411;50.024;19.220;2023-09-19T13:31:46;98573.34;;;23.45;100.00
35291;BME280;21411;50.024;19.220;2023-09-19T13:34:13;98574.75;;;23.49;100.00
35291;BME280;21411;50.024;19.220;2023-09-19T13:36:42;98583.67;;;23.50;100.00
35291;BME280;21411;50.024;19.220;2023-09-19T13:39:09;98581.42;;;23.38;100.00
35291;BME280;21411;50.024;19.220;2023-09-19T13:41:35;98583.27;;;23.16;100.00
35291;BME280;21411;50.024;19.220;2023-09-19T13:44:05;98579.73;;;22.96;100.00
35291;BME280;21411;50.024;19.220;2023-09-19T13:46:31;98584.11;;;22.70;100.00
35291;BME280;21411;50.024;19.220;2023-09-19T13:49:01;98582.08;;;22.59;100.00
35291;BME280;21411;50.024;19.220;2023-09-19T13:51:32;98585.63;;;22.52;100.00
35291;BME280;21411;50.024;19.220;2023-09-19T13:53:59;98583.34;;;22.34;100.00
35291;BME280;21411;50.024;19.220;2023-09-19T13:56:26;98583.89;;;22.25;100.00